createdAt,value
2019-02-17T00:00:38.913Z,102312.45
2019-02-17T00:03:07.444Z,102316.13
2019-02-17T00:05:35.909Z,102308.13
2019-02-17T00:08:04.405Z,102308.13
2019-02-17T00:10:32.854Z,102309.05
2019-02-17T00:13:01.312Z,102300.16
2019-02-17T00:15:29.856Z,102311.03
2019-02-17T00:17:58.308Z,102304.39
2019-02-17T00:20:26.767Z,102297.88
2019-02-17T00:22:55.247Z,102294.91
2019-02-17T00:25:23.700Z,102294.91
2019-02-17T00:27:52.158Z,102291.16
2019-02-17T00:30:20.662Z,102293.15
2019-02-17T00:32:49.130Z,102304.32
2019-02-17T00:35:17.589Z,102306.70
2019-02-17T00:37:46.077Z,102305.02
2019-02-17T00:40:14.534Z,102305.61
2019-02-17T00:42:42.998Z,102305.61
2019-02-17T00:45:11.653Z,102310.05
2019-02-17T00:47:40.172Z,102292.75
2019-02-17T00:50:09.689Z,102297.48
2019-02-17T00:52:38.191Z,102317.19
2019-02-17T00:55:08.266Z,102317.19
2019-02-17T00:57:36.725Z,102304.55
2019-02-17T01:00:11.127Z,102308.30
2019-02-17T01:02:39.591Z,102308.30
2019-02-17T01:05:08.052Z,102322.55
2019-02-17T01:07:36.549Z,102322.55
2019-02-17T01:10:06.943Z,102318.69
2019-02-17T01:12:35.405Z,102322.92
2019-02-17T01:15:05.053Z,102331.45
2019-02-17T01:17:33.504Z,102327.00
2019-02-17T01:20:01.970Z,102334.42
2019-02-17T01:22:30.456Z,102329.87
2019-02-17T01:24:58.941Z,102329.87
2019-02-17T01:27:27.391Z,102330.86
2019-02-17T01:29:55.878Z,102326.81
2019-02-17T01:32:24.334Z,102330.27
2019-02-17T01:34:52.801Z,102340.67
2019-02-17T01:37:21.303Z,102345.04
2019-02-17T01:39:53.315Z,102345.04
2019-02-17T01:42:21.772Z,102345.11
2019-02-17T01:44:50.261Z,102341.66
2019-02-17T01:47:18.722Z,102338.39
2019-02-17T01:49:47.316Z,102338.98
2019-02-17T01:52:15.815Z,102338.98
2019-02-17T01:54:44.279Z,102341.25
2019-02-17T01:57:12.854Z,102342.84
2019-02-17T01:59:41.352Z,102342.84
2019-02-17T02:02:09.819Z,102341.84
2019-02-17T02:04:38.272Z,102337.88
2019-02-17T02:07:06.756Z,102333.91
2019-02-17T02:09:35.214Z,102330.53
2019-02-17T02:12:03.747Z,102334.48
2019-02-17T02:14:32.232Z,102338.71
2019-02-17T02:17:00.689Z,102330.39
2019-02-17T02:19:29.165Z,102320.76
2019-02-17T02:21:57.671Z,102329.69
2019-02-17T02:24:26.139Z,102326.00
2019-02-17T02:26:54.595Z,102319.34
2019-02-17T02:29:23.090Z,102316.94
2019-02-17T02:31:51.558Z,102327.11
2019-02-17T02:34:20.014Z,102329.09
2019-02-17T02:36:48.531Z,102323.41
2019-02-17T02:39:17.012Z,102318.06
2019-02-17T02:41:45.473Z,102316.95
2019-02-17T02:44:13.981Z,102319.70
2019-02-17T02:46:42.439Z,102311.27
2019-02-17T02:49:10.892Z,102310.97
2019-02-17T02:51:39.375Z,102314.13
2019-02-17T02:54:07.832Z,102306.40
2019-02-17T02:56:36.301Z,102309.08
2019-02-17T02:59:06.270Z,102314.84
2019-02-17T03:01:34.731Z,102308.41
2019-02-17T03:04:03.264Z,102312.44
2019-02-17T03:06:39.563Z,102317.69
2019-02-17T03:09:08.020Z,102317.69
2019-02-17T03:11:36.491Z,102316.17
2019-02-17T03:14:04.986Z,102310.61
2019-02-17T03:16:33.460Z,102313.70
2019-02-17T03:19:01.928Z,102317.22
2019-02-17T03:21:30.419Z,102312.98
2019-02-17T03:23:58.889Z,102307.49
2019-02-17T03:26:27.373Z,102308.00
2019-02-17T03:28:55.881Z,102320.07
2019-02-17T03:31:24.351Z,102324.62
2019-02-17T03:33:52.807Z,102323.91
2019-02-17T03:36:21.312Z,102314.89
2019-02-17T03:38:49.890Z,102320.92
2019-02-17T03:41:18.328Z,102327.77
2019-02-17T03:43:46.808Z,102328.24
2019-02-17T03:46:15.272Z,102326.34
2019-02-17T03:48:43.735Z,102322.58
2019-02-17T03:51:12.391Z,102327.03
2019-02-17T03:53:40.844Z,102318.58
2019-02-17T03:56:09.314Z,102321.73
2019-02-17T03:58:37.841Z,102321.63
2019-02-17T04:01:07.270Z,102316.00
2019-02-17T04:03:35.738Z,102321.16
2019-02-17T04:06:04.242Z,102315.09
2019-02-17T04:08:32.691Z,102314.72
2019-02-17T04:11:01.175Z,102324.52
2019-02-17T04:13:29.638Z,102318.48
2019-02-17T04:15:58.105Z,102315.91
2019-02-17T04:18:26.729Z,102313.80
2019-02-17T04:20:55.232Z,102312.52
2019-02-17T04:23:31.299Z,102332.83
2019-02-17T04:25:55.049Z,102330.75
2019-02-17T04:28:23.541Z,102326.55
2019-02-17T04:30:52.010Z,102322.78
2019-02-17T04:33:20.468Z,102320.78
2019-02-17T04:35:48.997Z,102322.55
2019-02-17T04:38:17.454Z,102311.05
2019-02-17T04:40:45.945Z,102316.78
2019-02-17T04:43:14.412Z,102317.76
2019-02-17T04:45:42.872Z,102319.62
2019-02-17T04:48:11.339Z,102327.93
2019-02-17T04:50:39.833Z,102332.84
2019-02-17T04:53:08.304Z,102324.39
2019-02-17T04:55:36.752Z,102322.32
2019-02-17T04:58:05.253Z,102320.63
2019-02-17T05:00:40.293Z,102319.03
2019-02-17T05:03:04.085Z,102319.09
2019-02-17T05:05:32.591Z,102328.31
2019-02-17T05:08:01.063Z,102327.19
2019-02-17T05:10:29.531Z,102329.05
2019-02-17T05:12:58.022Z,102327.77
2019-02-17T05:15:26.504Z,102326.47
2019-02-17T05:17:55.062Z,102336.38
2019-02-17T05:20:23.527Z,102335.19
2019-02-17T05:22:51.980Z,102327.45
2019-02-17T05:25:20.431Z,102324.47
2019-02-17T05:27:48.915Z,102318.50
2019-02-17T05:30:17.374Z,102325.34
2019-02-17T05:32:45.826Z,102329.72
2019-02-17T05:35:14.330Z,102327.72
2019-02-17T05:37:42.786Z,102319.27
2019-02-17T05:40:11.284Z,102322.41
2019-02-17T05:42:39.762Z,102321.19
2019-02-17T05:45:08.296Z,102323.86
2019-02-17T05:47:36.753Z,102324.84
2019-02-17T05:50:06.515Z,102329.59
2019-02-17T05:52:34.979Z,102324.13
2019-02-17T05:55:03.429Z,102331.52
2019-02-17T05:57:31.989Z,102327.74
2019-02-17T06:00:00.744Z,102321.30
2019-02-17T06:02:29.236Z,102324.34
2019-02-17T06:04:59.083Z,102338.63
2019-02-17T06:07:27.540Z,102339.61
2019-02-17T06:09:56.010Z,102330.84
2019-02-17T06:12:24.498Z,102326.16
2019-02-17T06:14:52.965Z,102340.66
2019-02-17T06:17:21.428Z,102345.50
2019-02-17T06:19:49.926Z,102337.77
2019-02-17T06:22:18.391Z,102330.02
2019-02-17T06:24:46.854Z,102347.77
2019-02-17T06:27:15.375Z,102349.53
2019-02-17T06:29:43.827Z,102339.00
2019-02-17T06:32:12.288Z,102336.89
2019-02-17T06:34:40.779Z,102343.84
2019-02-17T06:37:09.234Z,102357.32
2019-02-17T06:39:37.693Z,102355.78
2019-02-17T06:42:06.184Z,102358.92
2019-02-17T06:44:34.674Z,102364.76
2019-02-17T06:47:03.319Z,102369.67
2019-02-17T06:49:31.817Z,102368.16
2019-02-17T06:52:00.287Z,102359.59
2019-02-17T06:54:28.737Z,102358.97
2019-02-17T06:56:58.884Z,102359.53
2019-02-17T06:59:27.340Z,102351.44
2019-02-17T07:01:55.805Z,102358.47
2019-02-17T07:04:26.921Z,102259.54
2019-02-17T07:06:57.187Z,102370.43
2019-02-17T07:09:25.667Z,102361.48
2019-02-17T07:11:56.882Z,102368.16
2019-02-17T07:14:24.370Z,102367.27
2019-02-17T07:16:52.824Z,102362.13
2019-02-17T07:19:21.311Z,102355.75
2019-02-17T07:21:51.391Z,102364.69
2019-02-17T07:24:19.845Z,102367.52
2019-02-17T07:26:48.415Z,102372.77
2019-02-17T07:29:21.152Z,102369.78
2019-02-17T07:31:49.628Z,102368.55
2019-02-17T07:34:19.455Z,102377.59
2019-02-17T07:36:48.888Z,102378.97
2019-02-17T07:39:19.504Z,102381.14
2019-02-17T07:41:49.651Z,102370.43
2019-02-17T07:44:25.117Z,102372.52
2019-02-17T07:46:55.190Z,102367.76
2019-02-17T07:49:23.667Z,102375.09
2019-02-17T07:51:52.146Z,102377.27
2019-02-17T07:54:20.661Z,102380.03
2019-02-17T07:56:49.160Z,102384.48
2019-02-17T07:59:17.620Z,102386.48
2019-02-17T08:01:46.205Z,102381.05
2019-02-17T08:04:16.784Z,102389.92
2019-02-17T08:06:48.428Z,102390.98
2019-02-17T08:09:17.169Z,102395.48
2019-02-17T08:11:47.259Z,102392.72
2019-02-17T08:14:16.739Z,102394.25
2019-02-17T08:16:47.077Z,102393.23
2019-02-17T08:19:16.383Z,102394.81
2019-02-17T08:21:48.035Z,102395.96
2019-02-17T08:24:29.656Z,102388.49
2019-02-17T08:26:59.768Z,102393.48
2019-02-17T08:29:30.748Z,102397.19
2019-02-17T08:32:00.864Z,102396.45
2019-02-17T08:34:29.334Z,102400.47
2019-02-17T08:36:59.616Z,102399.35
2019-02-17T08:39:28.962Z,102401.20
2019-02-17T08:41:57.431Z,102402.63
2019-02-17T08:44:25.961Z,102400.66
2019-02-17T08:46:54.444Z,102401.71
2019-02-17T08:49:22.908Z,102403.55
2019-02-17T08:51:51.406Z,102402.41
2019-02-17T08:54:19.888Z,102396.16
2019-02-17T08:56:48.388Z,102397.59
2019-02-17T08:59:16.879Z,102394.76
2019-02-17T09:01:45.356Z,102398.28
2019-02-17T09:04:13.837Z,102396.61
2019-02-17T09:06:42.343Z,102397.95
2019-02-17T09:09:10.864Z,102395.45
2019-02-17T09:11:40.365Z,102395.13
2019-02-17T09:14:08.896Z,102395.26
2019-02-17T09:16:37.359Z,102399.19
2019-02-17T09:19:05.830Z,102394.52
2019-02-17T09:21:34.315Z,102394.19
2019-02-17T09:24:02.945Z,102402.50
2019-02-17T09:26:31.414Z,102396.63
2019-02-17T09:28:59.901Z,102402.03
2019-02-17T09:31:30.129Z,102401.42
2019-02-17T09:33:58.602Z,102398.08
2019-02-17T09:36:27.274Z,102403.98
2019-02-17T09:38:55.750Z,102404.58
2019-02-17T09:41:24.246Z,102406.09
2019-02-17T09:43:52.729Z,102405.84
2019-02-17T09:46:21.211Z,102412.03
2019-02-17T09:48:49.788Z,102405.77
2019-02-17T09:51:18.250Z,102408.48
2019-02-17T09:53:47.018Z,102411.30
2019-02-17T09:56:15.470Z,102412.38
2019-02-17T09:58:43.940Z,102411.77
2019-02-17T10:01:12.470Z,102401.94
2019-02-17T10:03:40.961Z,102405.95
2019-02-17T10:06:09.424Z,102407.80
2019-02-17T10:08:37.882Z,102406.16
2019-02-17T10:11:06.391Z,102404.61
2019-02-17T10:13:34.957Z,102406.91
2019-02-17T10:16:03.419Z,102407.13
2019-02-17T10:18:31.924Z,102408.54
2019-02-17T10:21:00.454Z,102407.78
2019-02-17T10:23:28.929Z,102402.67
2019-02-17T10:25:57.457Z,102403.14
2019-02-17T10:28:25.893Z,102395.56
2019-02-17T10:30:54.370Z,102395.77
2019-02-17T10:33:22.879Z,102398.64
2019-02-17T10:35:51.454Z,102391.55
2019-02-17T10:38:19.919Z,102391.80
2019-02-17T10:40:48.409Z,102392.06
2019-02-17T10:43:16.871Z,102388.41
2019-02-17T10:45:45.333Z,102388.73
2019-02-17T10:48:13.898Z,102387.20
2019-02-17T10:50:42.380Z,102384.88
2019-02-17T10:53:11.199Z,102386.29
2019-02-17T10:55:39.700Z,102384.34
2019-02-17T10:58:08.160Z,102386.25
2019-02-17T11:00:36.626Z,102386.37
2019-02-17T11:03:07.466Z,102387.44
2019-02-17T11:05:36.026Z,102389.72
2019-02-17T11:08:04.483Z,102383.84
2019-02-17T11:10:32.999Z,102385.78
2019-02-17T11:13:01.469Z,102384.66
2019-02-17T11:15:31.277Z,102379.77
2019-02-17T11:17:59.775Z,102380.48
2019-02-17T11:20:28.238Z,102372.97
2019-02-17T11:22:56.695Z,102368.91
2019-02-17T11:25:26.136Z,102368.77
2019-02-17T11:27:54.593Z,102365.50
2019-02-17T11:30:23.061Z,102364.44
2019-02-17T11:32:58.060Z,102364.72
2019-02-17T11:35:21.770Z,102359.37
2019-02-17T11:37:50.254Z,102362.34
2019-02-17T11:40:18.772Z,102363.00
2019-02-17T11:42:47.240Z,102362.35
2019-02-17T11:45:17.519Z,102358.23
2019-02-17T11:47:46.017Z,102354.20
2019-02-17T11:50:15.797Z,102353.52
2019-02-17T11:52:44.520Z,102348.47
2019-02-17T11:55:15.641Z,102341.70
2019-02-17T11:57:44.383Z,102343.09
2019-02-17T12:00:18.435Z,102348.48
2019-02-17T12:02:46.960Z,102347.34
2019-02-17T12:05:15.518Z,102345.41
2019-02-17T12:07:44.002Z,102341.73
2019-02-17T12:10:12.682Z,102341.91
2019-02-17T12:12:41.194Z,102339.03
2019-02-17T12:15:11.892Z,102341.72
2019-02-17T12:17:40.517Z,102337.17
2019-02-17T12:20:41.159Z,102333.50
2019-02-17T12:23:11.307Z,102331.64
2019-02-17T12:25:44.370Z,102330.30
2019-02-17T12:28:14.502Z,102330.58
2019-02-17T12:30:44.366Z,102316.92
2019-02-17T12:33:19.191Z,102318.50
2019-02-17T12:35:43.020Z,102313.39
2019-02-17T12:38:11.536Z,102312.20
2019-02-17T12:40:39.998Z,102310.12
2019-02-17T12:43:08.474Z,102307.13
2019-02-17T12:45:36.978Z,102310.63
2019-02-17T12:48:05.458Z,102306.27
2019-02-17T12:50:33.919Z,102305.41
2019-02-17T12:53:02.449Z,102307.14
2019-02-17T12:55:30.910Z,102304.91
2019-02-17T12:57:59.368Z,102299.62
2019-02-17T13:00:27.874Z,102296.08
2019-02-17T13:02:56.326Z,102296.05
2019-02-17T13:05:24.793Z,102292.97
2019-02-17T13:07:53.298Z,102285.94
2019-02-17T13:10:21.784Z,102290.73
2019-02-17T13:12:50.258Z,102281.61
2019-02-17T13:15:18.784Z,102283.77
2019-02-17T13:17:47.235Z,102275.58
2019-02-17T13:20:16.791Z,102276.00
2019-02-17T13:22:45.323Z,102264.66
2019-02-17T13:25:15.651Z,102265.89
2019-02-17T13:27:44.118Z,102268.47
2019-02-17T13:30:15.677Z,102261.45
2019-02-17T13:32:44.147Z,102258.36
2019-02-17T13:35:12.621Z,102254.88
2019-02-17T13:37:41.168Z,102256.19
2019-02-17T13:40:12.255Z,102249.16
2019-02-17T13:42:40.714Z,102253.92
2019-02-17T13:45:14.028Z,102252.62
2019-02-17T13:47:42.538Z,102250.02
2019-02-17T13:50:13.531Z,102245.59
2019-02-17T13:52:42.028Z,102248.62
2019-02-17T13:55:11.027Z,102246.45
2019-02-17T13:57:39.505Z,102245.52
2019-02-17T14:00:11.016Z,102247.61
2019-02-17T14:02:39.483Z,102241.47
2019-02-17T14:05:08.185Z,102238.78
2019-02-17T14:07:36.713Z,102235.25
2019-02-17T14:10:10.712Z,102229.95
2019-02-17T14:12:50.446Z,102229.02
2019-02-17T14:15:20.179Z,102224.67
2019-02-17T14:17:48.643Z,102228.97
2019-02-17T14:20:17.179Z,102226.34
2019-02-17T14:22:45.857Z,102225.86
2019-02-17T14:25:14.422Z,102227.16
2019-02-17T14:27:42.890Z,102230.67
2019-02-17T14:30:13.330Z,102225.04
2019-02-17T14:32:41.809Z,102223.25
2019-02-17T14:35:10.347Z,102223.25
2019-02-17T14:37:38.895Z,102221.88
2019-02-17T14:40:12.295Z,102215.70
2019-02-17T14:42:40.753Z,102216.95
2019-02-17T14:45:13.368Z,102218.19
2019-02-17T14:47:41.841Z,102213.78
2019-02-17T14:50:11.164Z,102205.06
2019-02-17T14:52:39.683Z,102207.19
2019-02-17T14:55:12.096Z,102208.05
2019-02-17T14:57:40.557Z,102196.24
2019-02-17T15:00:16.188Z,102196.18
2019-02-17T15:02:44.654Z,102197.86
2019-02-17T15:05:13.190Z,102196.89
2019-02-17T15:07:41.700Z,102195.91
2019-02-17T15:10:14.433Z,102190.16
2019-02-17T15:12:42.916Z,102191.77
2019-02-17T15:15:12.865Z,102187.34
2019-02-17T15:17:41.335Z,102185.53
2019-02-17T15:20:17.184Z,102181.11
2019-02-17T15:22:45.703Z,102184.08
2019-02-17T15:25:14.407Z,102174.83
2019-02-17T15:27:42.893Z,102175.20
2019-02-17T15:30:17.652Z,102177.74
2019-02-17T15:32:45.633Z,102173.84
2019-02-17T15:35:14.111Z,102174.23
2019-02-17T15:37:42.611Z,102165.86
2019-02-17T15:40:12.915Z,102168.74
2019-02-17T15:42:43.051Z,102164.67
2019-02-17T15:45:14.893Z,102164.01
2019-02-17T15:47:43.452Z,102159.08
2019-02-17T15:50:12.958Z,102160.17
2019-02-17T15:52:41.468Z,102160.00
2019-02-17T15:55:16.525Z,102160.20
2019-02-17T15:57:44.993Z,102155.22
2019-02-17T16:00:17.511Z,102155.85
2019-02-17T16:02:45.974Z,102147.38
2019-02-17T16:05:14.445Z,102151.39
2019-02-17T16:07:44.404Z,102157.21
2019-02-17T16:10:17.768Z,102152.19
2019-02-17T16:12:46.241Z,102149.72
2019-02-17T16:15:20.112Z,102148.59
2019-02-17T16:17:48.586Z,102150.47
2019-02-17T16:20:17.070Z,102155.78
2019-02-17T16:22:45.579Z,102157.23
2019-02-17T16:25:14.045Z,102156.61
2019-02-17T16:27:42.767Z,102159.81
2019-02-17T16:30:13.868Z,102159.55
2019-02-17T16:32:42.416Z,102155.37
2019-02-17T16:35:10.878Z,102164.59
2019-02-17T16:37:39.369Z,102165.13
2019-02-17T16:40:15.403Z,102160.06
2019-02-17T16:42:43.909Z,102158.48
2019-02-17T16:45:13.518Z,102159.91
2019-02-17T16:47:42.146Z,102164.39
2019-02-17T16:50:19.830Z,102163.64
2019-02-17T16:52:48.293Z,102175.05
2019-02-17T16:55:16.820Z,102170.41
2019-02-17T16:57:45.419Z,102168.39
2019-02-17T17:00:18.161Z,102168.08
2019-02-17T17:02:46.612Z,102176.02
2019-02-17T17:05:15.265Z,102170.52
2019-02-17T17:07:43.821Z,102170.62
2019-02-17T17:10:12.360Z,102172.56
2019-02-17T17:12:41.031Z,102174.00
2019-02-17T17:15:09.972Z,102169.37
2019-02-17T17:17:38.504Z,102169.55
2019-02-17T17:20:10.058Z,102165.73
2019-02-17T17:22:38.526Z,102171.54
2019-02-17T17:25:10.578Z,102162.65
2019-02-17T17:27:41.322Z,102165.83
2019-02-17T17:30:23.326Z,102166.92
2019-02-17T17:32:51.754Z,102167.55
2019-02-17T17:35:20.219Z,102164.21
2019-02-17T17:37:48.683Z,102167.34
2019-02-17T17:40:18.115Z,102164.50
2019-02-17T17:42:47.242Z,102158.56
2019-02-17T17:45:20.244Z,102158.31
2019-02-17T17:47:52.851Z,102159.39
2019-02-17T17:50:21.329Z,102156.92
2019-02-17T17:52:49.882Z,102151.48
2019-02-17T17:55:18.390Z,102163.33
2019-02-17T17:57:46.845Z,102155.81
2019-02-17T18:00:18.376Z,102155.22
2019-02-17T18:02:46.899Z,102152.00
2019-02-17T18:05:15.418Z,102155.25
2019-02-17T18:07:43.942Z,102152.49
2019-02-17T18:10:16.270Z,102161.41
2019-02-17T18:12:44.834Z,102157.26
2019-02-17T18:15:18.577Z,102157.36
2019-02-17T18:17:53.897Z,102154.09
2019-02-17T18:20:17.322Z,102158.20
2019-02-17T18:22:45.796Z,102157.11
2019-02-17T18:25:14.910Z,102160.38
2019-02-17T18:27:43.383Z,102167.95
2019-02-17T18:30:19.798Z,102164.77
2019-02-17T18:32:48.255Z,102155.08
2019-02-17T18:35:20.308Z,102156.97
2019-02-17T18:37:51.286Z,102166.25
2019-02-17T18:40:30.611Z,102158.30
2019-02-17T18:42:54.819Z,102160.33
2019-02-17T18:45:23.283Z,102152.81
2019-02-17T18:47:51.923Z,102156.55
2019-02-17T18:50:20.488Z,102171.91
2019-02-17T18:52:49.100Z,102167.38
2019-02-17T18:55:17.552Z,102171.02
2019-02-17T18:57:50.327Z,102167.41
2019-02-17T19:00:23.683Z,102164.19
2019-02-17T19:02:52.261Z,102169.20
2019-02-17T19:05:31.053Z,102160.48
2019-02-17T19:07:50.916Z,102160.34
2019-02-17T19:10:19.502Z,102153.73
2019-02-17T19:12:47.955Z,102147.11
2019-02-17T19:15:19.744Z,102149.63
2019-02-17T19:17:48.300Z,102149.48
2019-02-17T19:20:19.749Z,102147.12
2019-02-17T19:22:48.221Z,102146.57
2019-02-17T19:25:16.711Z,102150.70
2019-02-17T19:27:45.160Z,102151.34
2019-02-17T19:30:15.371Z,102151.60
2019-02-17T19:32:43.928Z,102154.09
2019-02-17T19:35:14.424Z,102152.97
2019-02-17T19:37:42.895Z,102155.40
2019-02-17T19:40:13.357Z,102157.83
2019-02-17T19:42:41.804Z,102158.52
2019-02-17T19:45:17.313Z,102157.95
2019-02-17T19:47:45.808Z,102153.88
2019-02-17T19:50:15.282Z,102159.77
2019-02-17T19:52:43.759Z,102163.85
2019-02-17T19:55:14.274Z,102154.98
2019-02-17T19:57:42.950Z,102159.52
2019-02-17T20:00:14.539Z,102160.71
2019-02-17T20:02:59.824Z,102150.15
2019-02-17T20:05:29.931Z,102159.42
2019-02-17T20:07:58.391Z,102153.14
2019-02-17T20:10:26.870Z,102154.95
2019-02-17T20:12:55.332Z,102153.04
2019-02-17T20:15:25.434Z,102158.92
2019-02-17T20:17:54.227Z,102156.56
2019-02-17T20:20:22.688Z,102161.96
2019-02-17T20:22:51.148Z,102156.23
2019-02-17T20:25:19.667Z,102156.45
2019-02-17T20:27:48.120Z,102154.22
2019-02-17T20:30:16.599Z,102150.57
2019-02-17T20:32:45.135Z,102146.95
2019-02-17T20:35:13.613Z,102147.27
2019-02-17T20:37:44.768Z,102147.98
2019-02-17T20:40:15.184Z,102149.11
2019-02-17T20:42:43.640Z,102150.61
2019-02-17T20:45:12.491Z,102152.62
2019-02-17T20:47:41.024Z,102149.00
2019-02-17T20:50:12.234Z,102151.41
2019-02-17T20:52:40.888Z,102148.64
2019-02-17T20:55:11.155Z,102150.17
2019-02-17T20:57:39.625Z,102156.51
2019-02-17T21:00:22.727Z,102148.11
2019-02-17T21:02:54.504Z,102142.76
2019-02-17T21:05:22.974Z,102141.31
2019-02-17T21:07:51.465Z,102142.02
2019-02-17T21:10:19.928Z,102134.13
2019-02-17T21:12:48.403Z,102136.95
2019-02-17T21:15:20.666Z,102132.98
2019-02-17T21:17:49.127Z,102132.82
2019-02-17T21:20:18.865Z,102137.46
2019-02-17T21:22:47.363Z,102135.59
2019-02-17T21:25:15.826Z,102136.31
2019-02-17T21:27:44.419Z,102130.19
2019-02-17T21:30:20.362Z,102117.08
2019-02-17T21:32:48.909Z,102123.58
2019-02-17T21:35:17.742Z,102117.80
2019-02-17T21:37:46.328Z,102107.23
2019-02-17T21:40:15.139Z,102109.88
2019-02-17T21:42:43.612Z,102108.52
2019-02-17T21:45:16.066Z,102104.96
2019-02-17T21:47:44.560Z,102103.30
2019-02-17T21:50:15.448Z,102103.30
2019-02-17T21:52:45.350Z,102099.84
2019-02-17T21:55:17.138Z,102095.41
2019-02-17T21:57:47.272Z,102095.34
2019-02-17T22:00:20.673Z,102099.14
2019-02-17T22:02:49.146Z,102099.14
2019-02-17T22:05:17.692Z,102098.97
2019-02-17T22:07:46.332Z,102094.94
2019-02-17T22:10:17.010Z,102095.75
2019-02-17T22:12:45.558Z,102093.95
2019-02-17T22:15:19.697Z,102090.41
2019-02-17T22:17:48.152Z,102084.91
2019-02-17T22:20:16.618Z,102076.05
2019-02-17T22:22:45.127Z,102076.05
2019-02-17T22:25:15.223Z,102072.09
2019-02-17T22:27:43.726Z,102069.75
2019-02-17T22:30:15.561Z,102069.75
2019-02-17T22:32:44.049Z,102061.76
2019-02-17T22:35:12.567Z,102067.51
2019-02-17T22:37:41.067Z,102067.51
2019-02-17T22:40:14.200Z,102072.38
2019-02-17T22:42:43.698Z,102066.00
2019-02-17T22:45:12.930Z,102074.31
2019-02-17T22:47:41.394Z,102075.91
2019-02-17T22:50:16.332Z,102075.91
2019-02-17T22:52:47.969Z,102073.97
2019-02-17T22:55:16.433Z,102073.10
2019-02-17T22:57:44.887Z,102069.67
2019-02-17T23:00:26.432Z,102069.67
2019-02-17T23:02:54.888Z,102061.09
2019-02-17T23:05:23.349Z,102061.09
2019-02-17T23:07:51.854Z,102061.91
2019-02-17T23:10:20.314Z,102061.11
2019-02-17T23:12:48.786Z,102068.64
2019-02-17T23:15:17.344Z,102071.51
2019-02-17T23:17:45.804Z,102065.13
2019-02-17T23:20:14.273Z,102065.13
2019-02-17T23:22:42.788Z,102061.21
2019-02-17T23:25:11.325Z,102061.21
2019-02-17T23:27:39.829Z,102059.31
2019-02-17T23:30:10.682Z,102052.12
2019-02-17T23:32:39.159Z,102052.12
2019-02-17T23:35:09.187Z,102059.23
2019-02-17T23:37:37.661Z,102042.95
2019-02-17T23:40:09.299Z,102046.91
2019-02-17T23:42:37.772Z,102050.98
2019-02-17T23:45:12.421Z,102050.98
2019-02-17T23:47:41.062Z,102043.07
2019-02-17T23:50:13.742Z,102044.36
2019-02-17T23:52:42.627Z,102042.00
2019-02-17T23:55:11.939Z,102029.76
2019-02-17T23:57:40.393Z,102031.34
